Hovedside
METAR-TAF:

METAR-TAF

Lufthavner :

Lycksele lufthavn

Lycksele, Sverige

breddegrad: 64-32-51N, lengdegrad: 018-43-03E, høyde over havet: 211 m

Gjeldene værobservasjon

Denne rapporten ble laget for 25 minutter siden, klokken 10:20 UTC
Vind 3 kt fra Vest, skiftende mellom Vest-sørvest og Nordvest
Temperatur 13°C
Luftfuktighet 94%
Trykk 999 hPa
Sikt 10 km eller mer
Få skyer i en høyde av 2300 ft
lett regn,

METAR: ESNL 191020Z 28003KT 250V320 9999 -RA FEW023 13/12 Q0999

Tid: 12:45 (10:45 UTC)


TAF: fraværende

Værobservasjoner og værvarsel for over 4000 flyplasser (METAR- og TAF-rapporter).

Tilgjengelige stasjoner er representert av de røde og gule prikkene på kartet.

Hold musepekeren over prikken for å se navnet på stasjonen.

Klikk så for å se værobservasjoner og -varsler.

For å forandre kartet kan du klikke på den grønne knappen med svart kryss for å zoome inn, på den grønne knappen med strek for å zoome ut, eller på de grønne pilene for å se tilstøtende kart.


METAR-TAF: